Terminal Aerodrome Forecast
Issued by NWS Greer, SC

Home | Current Version | Previous Version | Text Only | Print | Product List | Glossary On
Versions: 1 2 3 4 5 6 7 8 9 10 11 12 13
000
FTUS42 KGSP 232300
TAFAVL
TAF
KAVL 232335Z 2400/2424 33010KT P6SM SKC
     FM240500 00000KT P6SM SKC
     FM241400 13006KT P6SM FEW250
     FM242100 17009KT P6SM FEW250=

USA.gov is the U.S. government's official web portal to all federal, state and local government web resources and services.